Time;durP1;ratioP1;P1;durP2;ratioP2;P2;SDS_P1;SDS_P2;PMS_P1;PMS_P2;Temp;Humidity;BMP_temperature;BMP_pressure;BME280_temperature;BME280_humidity;BME280_pressure;Samples;Min_cycle;Max_cycle;Signal;HPM_P1;HPM_P2
2020/12/19 00:02:23;;;;;;;10.77;6.90;;;;;;;2.65;90.96;99472.78;5043724;28;20045;-79
2020/12/19 00:04:49;;;;;;;12.05;7.30;;;;;;;2.57;91.10;99476.06;5050794;28;20509;-79
2020/12/19 00:07:16;;;;;;;12.32;7.03;;;;;;;2.54;90.93;99475.50;5051612;28;20098;-79
2020/12/19 00:09:43;;;;;;;13.57;6.50;;;;;;;2.36;91.13;99443.81;5051944;28;20452;-79
2020/12/19 00:12:09;;;;;;;13.63;6.85;;;;;;;2.51;91.22;99473.91;5052719;28;20111;-79
2020/12/19 00:14:35;;;;;;;12.93;8.15;;;;;;;2.47;91.00;99465.25;5052797;28;20106;-79
2020/12/19 00:17:02;;;;;;;12.48;7.68;;;;;;;2.37;91.17;99456.25;5053962;28;20063;-80
2020/12/19 00:19:29;;;;;;;12.00;7.22;;;;;;;2.58;91.12;99468.91;5052358;28;20132;-79
2020/12/19 00:22:01;;;;;;;10.15;6.75;;;;;;;2.62;89.97;99465.84;5054276;28;20060;-80
2020/12/19 00:24:28;;;;;;;12.50;7.25;;;;;;;2.44;90.34;99457.47;5037773;28;20080;-81
2020/12/19 00:26:55;;;;;;;10.98;6.53;;;;;;;2.46;90.72;99458.19;5054803;28;20048;-78
2020/12/19 00:29:21;;;;;;;12.45;6.38;;;;;;;2.48;90.55;99460.72;5053458;28;20447;-79
2020/12/19 00:31:47;;;;;;;13.63;6.07;;;;;;;2.46;91.14;99450.13;5049498;28;20048;-78
2020/12/19 00:34:13;;;;;;;10.50;6.70;;;;;;;2.58;90.53;99442.91;5051356;28;20099;-79
2020/12/19 00:36:40;;;;;;;8.98;5.88;;;;;;;2.52;90.74;99439.88;5051591;28;20041;-79
2020/12/19 00:39:06;;;;;;;12.00;7.47;;;;;;;2.47;90.72;99441.09;5051437;28;20041;-78
2020/12/19 00:41:33;;;;;;;12.15;7.82;;;;;;;2.50;90.77;99436.44;5050400;28;20060;-79
2020/12/19 00:44:00;;;;;;;12.00;7.75;;;;;;;2.42;91.37;99424.50;5051461;28;20044;-79
2020/12/19 00:46:26;;;;;;;12.10;7.15;;;;;;;2.47;91.46;99426.84;5041184;28;20106;-79
2020/12/19 00:48:53;;;;;;;10.23;6.78;;;;;;;2.57;91.10;99426.91;5051744;28;20056;-79
2020/12/19 00:51:22;;;;;;;12.50;7.28;;;;;;;2.61;90.90;99426.53;5049953;28;20444;-79
2020/12/19 00:53:49;;;;;;;12.25;6.72;;;;;;;2.64;90.66;99425.44;5052017;28;20049;-79
2020/12/19 00:56:17;;;;;;;13.35;7.50;;;;;;;2.68;90.52;99426.91;5051194;28;20493;-79
2020/12/19 00:58:44;;;;;;;13.70;6.93;;;;;;;2.59;90.76;99422.25;5051372;28;20099;-79
2020/12/19 01:01:12;;;;;;;11.27;6.75;;;;;;;2.46;90.75;99407.19;5044053;28;20060;-79
2020/12/19 01:03:39;;;;;;;14.18;5.97;;;;;;;2.59;90.93;99411.53;5051565;28;20041;-79
2020/12/19 01:06:05;;;;;;;14.52;7.00;;;;;;;2.66;91.24;99418.09;5051262;28;20059;-79
2020/12/19 01:08:31;;;;;;;12.02;6.78;;;;;;;2.73;90.65;99413.09;5051298;28;20044;-79
2020/12/19 01:10:58;;;;;;;11.82;6.63;;;;;;;2.62;90.75;99404.09;5055300;28;20554;-79
2020/12/19 01:13:24;;;;;;;8.88;5.45;;;;;;;2.75;91.24;99424.53;5036952;28;20429;-79
2020/12/19 01:15:50;;;;;;;11.77;6.65;;;;;;;2.91;91.40;99426.78;5033116;28;20175;-79
2020/12/19 01:18:18;;;;;;;11.90;7.00;;;;;;;2.95;91.13;99422.84;5049461;28;20440;-79
2020/12/19 01:20:44;;;;;;;11.80;6.55;;;;;;;2.94;91.12;99400.53;5051568;28;20448;-79
2020/12/19 01:23:11;;;;;;;10.00;6.47;;;;;;;3.05;90.83;99410.34;5053124;28;20421;-79
2020/12/19 01:25:37;;;;;;;10.90;6.38;;;;;;;3.07;89.96;99420.97;5052849;28;20045;-79
2020/12/19 01:28:03;;;;;;;12.52;6.25;;;;;;;2.94;89.75;99413.94;5046418;28;20092;-80
2020/12/19 01:30:29;;;;;;;12.55;7.05;;;;;;;2.81;90.42;99398.00;5045841;28;20056;-79
2020/12/19 01:32:56;;;;;;;11.55;6.57;;;;;;;3.01;90.50;99423.19;5035403;28;20049;-79
2020/12/19 01:35:23;;;;;;;14.13;6.80;;;;;;;3.15;90.63;99429.22;5049970;28;20073;-79
2020/12/19 01:37:49;;;;;;;13.60;6.97;;;;;;;2.99;90.68;99406.34;5049965;28;20067;-79
2020/12/19 01:40:16;;;;;;;12.18;7.28;;;;;;;3.09;90.85;99419.00;5051239;28;20041;-79
2020/12/19 01:42:42;;;;;;;16.15;6.72;;;;;;;2.98;89.94;99411.84;5050711;28;20049;-79
2020/12/19 01:45:08;;;;;;;13.75;7.22;;;;;;;2.95;89.79;99420.16;5051615;28;20382;-79
2020/12/19 01:47:35;;;;;;;15.88;7.53;;;;;;;2.88;89.85;99414.47;5049916;28;20049;-79
2020/12/19 01:50:05;;;;;;;15.57;7.47;;;;;;;2.87;89.71;99418.13;5049570;28;20500;-79
2020/12/19 01:52:32;;;;;;;11.02;6.78;;;;;;;2.88;90.10;99409.09;5049610;28;20086;-79
2020/12/19 01:55:00;;;;;;;13.43;6.95;;;;;;;2.89;90.37;99405.44;5051906;28;20079;-79
2020/12/19 01:57:30;;;;;;;10.98;6.15;;;;;;;2.81;90.07;99398.00;5053101;28;20385;-78
2020/12/19 01:59:56;;;;;;;14.43;7.18;;;;;;;2.84;90.08;99407.66;5050391;28;20534;-78
2020/12/19 02:02:24;;;;;;;9.88;6.80;;;;;;;2.84;90.00;99404.97;5049224;28;20045;-79
2020/12/19 02:04:50;;;;;;;12.07;7.00;;;;;;;2.88;90.40;99400.19;5051035;28;20182;-79
2020/12/19 02:07:17;;;;;;;15.50;7.25;;;;;;;2.78;90.59;99394.75;5050925;28;20053;-79
2020/12/19 02:09:45;;;;;;;11.52;6.80;;;;;;;2.85;91.11;99395.94;5050557;28;20045;-79
2020/12/19 02:12:12;;;;;;;14.70;7.00;;;;;;;2.94;90.86;99408.56;5050041;28;20052;-79
2020/12/19 02:14:39;;;;;;;14.75;7.28;;;;;;;2.96;90.82;99416.50;5050560;28;20045;-79
2020/12/19 02:17:07;;;;;;;13.00;7.50;;;;;;;2.99;90.64;99410.88;5048773;28;20095;-79
2020/12/19 02:19:34;;;;;;;16.88;7.93;;;;;;;3.09;90.03;99397.53;5050025;28;20045;-79
2020/12/19 02:22:01;;;;;;;13.07;6.68;;;;;;;3.12;89.35;99398.09;5050640;28;20444;-79
2020/12/19 02:24:28;;;;;;;11.55;6.07;;;;;;;3.15;89.18;99386.25;5047225;28;20456;-79
2020/12/19 02:26:56;;;;;;;11.07;6.35;;;;;;;3.23;89.02;99397.16;5039138;28;20048;-79
2020/12/19 02:29:23;;;;;;;12.35;6.50;;;;;;;3.26;88.80;99396.91;5048474;28;20083;-79
2020/12/19 02:31:50;;;;;;;12.13;6.03;;;;;;;3.30;88.92;99384.91;5050202;28;20053;-79
2020/12/19 02:34:17;;;;;;;10.02;6.60;;;;;;;3.31;88.53;99370.50;5049652;28;20063;-79
2020/12/19 02:36:44;;;;;;;11.02;6.75;;;;;;;3.31;88.14;99375.88;5049831;28;20076;-79
2020/12/19 02:39:11;;;;;;;13.70;7.00;;;;;;;3.24;88.08;99373.81;5050387;28;20146;-79
2020/12/19 02:41:39;;;;;;;13.45;6.30;;;;;;;3.35;88.05;99387.19;5050223;28;20044;-79
2020/12/19 02:44:08;;;;;;;10.88;6.38;;;;;;;3.40;88.18;99390.31;5048887;28;20053;-79
2020/12/19 02:46:35;;;;;;;12.18;6.93;;;;;;;3.40;88.14;99402.94;5049719;28;20045;-79
2020/12/19 02:49:02;;;;;;;9.85;5.75;;;;;;;3.50;87.76;99382.31;5049686;28;20458;-79
2020/12/19 02:51:28;;;;;;;13.65;6.60;;;;;;;3.41;87.94;99383.97;5051457;28;20091;-80
2020/12/19 02:53:54;;;;;;;8.38;6.15;;;;;;;3.27;88.22;99369.06;5053141;28;20049;-79
2020/12/19 02:56:20;;;;;;;8.63;5.82;;;;;;;3.33;87.91;99379.28;5054239;28;20055;-79
2020/12/19 02:58:47;;;;;;;14.38;6.53;;;;;;;3.21;88.23;99368.72;5053923;28;20052;-79
2020/12/19 03:01:20;;;;;;;10.32;6.47;;;;;;;3.25;87.79;99365.66;5047140;28;20048;-79
2020/12/19 03:03:46;;;;;;;10.50;6.30;;;;;;;3.14;87.53;99376.47;5055645;28;20084;-79
2020/12/19 03:06:12;;;;;;;9.27;5.82;;;;;;;3.15;87.74;99376.34;5054160;28;20060;-79
2020/12/19 03:08:38;;;;;;;10.60;5.78;;;;;;;3.06;87.61;99382.50;5052325;28;20041;-79
2020/12/19 03:11:05;;;;;;;10.82;5.28;;;;;;;2.90;87.49;99369.53;5053402;28;20409;-79
2020/12/19 03:13:31;;;;;;;10.05;6.68;;;;;;;3.04;87.69;99379.13;5053284;28;20076;-79
2020/12/19 03:15:58;;;;;;;12.50;6.25;;;;;;;2.93;87.80;99387.22;5053325;28;20111;-79
2020/12/19 03:18:24;;;;;;;10.35;5.68;;;;;;;2.85;87.83;99362.88;5052490;28;20410;-79
2020/12/19 03:20:50;;;;;;;11.10;6.00;;;;;;;2.88;87.89;99370.66;5052704;28;20111;-79
2020/12/19 03:23:17;;;;;;;8.60;5.70;;;;;;;2.75;87.93;99366.31;5055322;28;20045;-79
2020/12/19 03:25:43;;;;;;;10.25;5.45;;;;;;;2.71;88.04;99374.75;5055250;28;20052;-79
2020/12/19 03:28:09;;;;;;;8.70;4.97;;;;;;;2.71;88.33;99378.31;5055561;28;20053;-80
2020/12/19 03:30:36;;;;;;;11.43;5.28;;;;;;;2.48;88.42;99362.31;5054098;28;20106;-80
2020/12/19 03:33:03;;;;;;;8.77;5.53;;;;;;;2.48;88.50;99359.63;5053694;28;20053;-80
2020/12/19 03:35:33;;;;;;;9.10;4.63;;;;;;;2.46;88.78;99372.31;5052824;28;20045;-78
2020/12/19 03:38:00;;;;;;;7.50;4.82;;;;;;;2.40;88.49;99362.09;5053532;28;20049;-80
2020/12/19 03:40:26;;;;;;;13.52;6.22;;;;;;;2.43;88.36;99361.81;5053032;28;20041;-80
2020/12/19 03:42:53;;;;;;;8.02;5.05;;;;;;;2.37;88.92;99351.59;5053272;28;20052;-79
2020/12/19 03:45:19;;;;;;;10.13;5.85;;;;;;;2.44;88.70;99360.00;5052438;28;20037;-80
2020/12/19 03:47:46;;;;;;;7.35;4.65;;;;;;;2.43;88.43;99369.03;5052495;28;20052;-80
2020/12/19 03:50:13;;;;;;;8.23;5.55;;;;;;;2.46;87.57;99358.03;5052314;28;20048;-80
2020/12/19 03:52:39;;;;;;;8.73;5.60;;;;;;;2.35;88.06;99366.13;5052735;28;20520;-80
2020/12/19 03:55:06;;;;;;;9.35;4.82;;;;;;;2.21;89.00;99351.16;5052592;28;20041;-80
2020/12/19 03:57:32;;;;;;;11.50;5.38;;;;;;;2.09;88.64;99337.81;5052276;28;20045;-80
2020/12/19 03:59:58;;;;;;;7.93;5.10;;;;;;;2.11;88.65;99335.84;5052180;28;20052;-80
2020/12/19 04:02:24;;;;;;;9.10;4.45;;;;;;;2.21;88.75;99353.84;5052433;28;20053;-80
2020/12/19 04:04:50;;;;;;;7.93;4.50;;;;;;;2.04;88.71;99325.75;5051876;28;20425;-80
2020/12/19 04:07:18;;;;;;;7.60;4.63;;;;;;;2.20;88.63;99354.81;5052180;28;20049;-79
2020/12/19 04:09:44;;;;;;;9.25;4.45;;;;;;;2.04;88.63;99342.69;5051851;28;20111;-80
2020/12/19 04:12:10;;;;;;;6.38;4.30;;;;;;;1.94;88.75;99337.25;5052234;28;20049;-80
2020/12/19 04:14:39;;;;;;;7.30;4.32;;;;;;;1.87;89.08;99333.34;5051894;28;20048;-80
2020/12/19 04:17:07;;;;;;;7.43;4.50;;;;;;;1.89;89.42;99336.75;5051036;28;20041;-80
2020/12/19 04:19:34;;;;;;;5.50;4.07;;;;;;;1.99;89.21;99336.00;5052156;28;20049;-80
2020/12/19 04:22:01;;;;;;;7.00;4.50;;;;;;;1.85;88.78;99321.03;5051523;28;20235;-80
2020/12/19 04:24:28;;;;;;;10.10;4.47;;;;;;;2.08;88.33;99338.78;5051235;28;20175;-80
2020/12/19 04:26:54;;;;;;;7.60;4.40;;;;;;;1.85;88.22;99321.03;5052311;28;20041;-80
2020/12/19 04:29:20;;;;;;;7.47;4.68;;;;;;;1.99;88.85;99339.53;5051471;28;20040;-79
2020/12/19 04:31:47;;;;;;;8.80;4.15;;;;;;;1.86;88.56;99330.78;5052176;28;20057;-79
2020/12/19 04:34:13;;;;;;;5.88;3.90;;;;;;;1.90;88.44;99340.31;5051447;28;20512;-80
2020/12/19 04:36:39;;;;;;;8.32;4.78;;;;;;;1.88;89.08;99332.38;5052000;28;20103;-80
2020/12/19 04:39:06;;;;;;;9.75;4.75;;;;;;;1.98;88.80;99337.00;5051324;28;20114;-78
2020/12/19 04:41:33;;;;;;;10.55;5.18;;;;;;;1.92;89.11;99324.94;5051426;28;20048;-79
2020/12/19 04:44:00;;;;;;;11.45;4.68;;;;;;;1.97;88.62;99328.06;5051129;28;20049;-80
2020/12/19 04:46:29;;;;;;;6.70;4.25;;;;;;;1.81;88.76;99312.41;5050913;28;20041;-80
2020/12/19 04:48:56;;;;;;;9.95;4.72;;;;;;;1.88;88.74;99324.34;5051647;28;20049;-80
2020/12/19 04:51:22;;;;;;;7.60;4.32;;;;;;;1.86;88.34;99330.78;5051454;28;20049;-80
2020/12/19 04:53:49;;;;;;;8.60;4.22;;;;;;;1.70;88.58;99302.56;5052086;28;20049;-79
2020/12/19 04:56:16;;;;;;;5.78;4.10;;;;;;;1.83;89.11;99314.97;5051120;28;20447;-80
2020/12/19 04:58:43;;;;;;;7.43;4.43;;;;;;;1.84;88.74;99314.00;5050490;28;20041;-80
2020/12/19 05:01:09;;;;;;;9.48;5.05;;;;;;;1.87;88.74;99324.47;5049490;28;20140;-80
2020/12/19 05:03:36;;;;;;;8.75;4.72;;;;;;;1.81;89.63;99308.84;5051037;28;20489;-80
2020/12/19 05:06:03;;;;;;;11.40;4.38;;;;;;;1.77;89.51;99305.59;5044422;28;20048;-80
2020/12/19 05:08:30;;;;;;;8.57;4.50;;;;;;;1.91;89.22;99323.22;5043490;28;20386;-79
2020/12/19 05:10:59;;;;;;;7.70;4.53;;;;;;;1.92;88.91;99304.31;5051410;28;20063;-79
2020/12/19 05:13:26;;;;;;;10.05;4.53;;;;;;;1.97;88.01;99327.22;5048241;28;20049;-79
2020/12/19 05:15:53;;;;;;;9.50;4.38;;;;;;;1.92;88.31;99324.94;5050885;28;20052;-79
2020/12/19 05:18:20;;;;;;;8.85;4.50;;;;;;;2.11;88.42;99318.91;5050079;28;20056;-79
2020/12/19 05:20:47;;;;;;;10.40;4.32;;;;;;;2.26;88.14;99324.84;5050692;28;20505;-79
2020/12/19 05:23:14;;;;;;;7.80;4.97;;;;;;;2.26;87.74;99316.78;5051405;28;20477;-78
2020/12/19 05:25:41;;;;;;;5.60;4.28;;;;;;;2.24;87.90;99316.03;5050524;28;20057;-79
2020/12/19 05:28:08;;;;;;;7.72;4.13;;;;;;;2.17;87.73;99318.41;5050860;28;20059;-79
2020/12/19 05:30:34;;;;;;;8.73;3.80;;;;;;;2.17;87.39;99322.88;5050923;28;20037;-78
2020/12/19 05:33:01;;;;;;;6.78;3.95;;;;;;;2.07;87.59;99322.81;5050958;28;20057;-76
2020/12/19 05:35:27;;;;;;;10.32;4.68;;;;;;;1.95;87.78;99322.00;5050713;28;20444;-76
2020/12/19 05:37:59;;;;;;;8.98;4.68;;;;;;;1.85;87.54;99326.41;5050643;28;20551;-76
2020/12/19 05:40:28;;;;;;;5.75;3.90;;;;;;;1.76;88.47;99331.56;5050775;28;20052;-76
2020/12/19 05:42:54;;;;;;;7.60;4.20;;;;;;;1.65;89.00;99320.00;5050411;28;20091;-76
2020/12/19 05:45:22;;;;;;;9.77;5.55;;;;;;;1.72;89.06;99326.56;5042581;28;20056;-77
2020/12/19 05:47:49;;;;;;;10.55;4.95;;;;;;;1.63;88.94;99325.47;5044760;28;20068;-76
2020/12/19 05:50:17;;;;;;;7.32;4.05;;;;;;;1.53;88.51;99332.53;5051071;28;20101;-76
2020/12/19 05:52:43;;;;;;;6.35;4.43;;;;;;;1.51;89.15;99330.00;5038990;28;20057;-76
2020/12/19 05:55:10;;;;;;;11.52;4.75;;;;;;;1.55;88.98;99328.78;5035185;28;20071;-76
2020/12/19 05:57:38;;;;;;;7.07;4.47;;;;;;;1.53;89.20;99328.03;5041035;28;20049;-77
2020/12/19 06:00:09;;;;;;;8.85;4.82;;;;;;;1.50;89.08;99327.44;5030946;28;20049;-76
2020/12/19 06:02:36;;;;;;;7.57;4.25;;;;;;;1.42;88.75;99325.38;5047733;28;20048;-78
2020/12/19 06:05:06;;;;;;;6.82;4.35;;;;;;;1.45;88.80;99325.13;5050785;28;20164;-79
2020/12/19 06:07:37;;;;;;;6.70;3.88;;;;;;;1.35;88.92;99335.72;5048734;28;20107;-79
2020/12/19 06:10:06;;;;;;;8.60;4.45;;;;;;;1.29;88.90;99330.84;5049302;28;20056;-78
2020/12/19 06:12:42;;;;;;;11.63;4.07;;;;;;;1.29;88.97;99332.69;5050635;28;20045;-78
2020/12/19 06:15:12;;;;;;;5.65;3.63;;;;;;;1.26;89.15;99333.75;5039448;28;20049;-78
2020/12/19 06:17:46;;;;;;;;;;;;;;;1.22;89.09;99332.31;5050829;28;20061;-78
2020/12/19 06:20:15;;;;;;;8.23;4.40;;;;;;;1.21;89.40;99326.09;5048190;28;20258;-78
2020/12/19 06:22:43;;;;;;;10.05;4.68;;;;;;;1.32;89.83;99322.56;5050369;28;20049;-78
2020/12/19 06:25:09;;;;;;;8.65;5.07;;;;;;;1.35;89.39;99322.31;5051905;28;20053;-78
2020/12/19 06:27:40;;;;;;;8.65;4.15;;;;;;;1.44;88.85;99333.28;5053701;28;20055;-79
2020/12/19 06:30:08;;;;;;;7.85;5.22;;;;;;;1.42;89.28;99336.09;5053468;28;20489;-78
2020/12/19 06:32:34;;;;;;;7.63;4.32;;;;;;;1.30;88.85;99319.16;5053318;28;20075;-79
2020/12/19 06:35:03;;;;;;;8.50;4.80;;;;;;;1.36;89.02;99328.53;5050645;28;20044;-79
2020/12/19 06:37:31;;;;;;;9.18;4.53;;;;;;;1.33;nan;99335.00;5053822;28;20057;-79
2020/12/19 06:40:12;;;;;;;7.07;4.22;;;;;;;1.26;89.17;99330.25;5048821;28;20048;-78
2020/12/19 06:42:39;;;;;;;7.43;4.50;;;;;;;1.18;89.46;99317.47;5048103;28;20041;-78
2020/12/19 06:45:25;;;;;;;7.78;4.45;;;;;;;1.28;88.88;99334.50;5053811;28;20059;-78
2020/12/19 06:47:53;;;;;;;8.82;4.72;;;;;;;1.20;89.31;99320.84;5054317;28;20045;-78
2020/12/19 06:50:20;;;;;;;8.90;4.38;;;;;;;1.30;88.63;99326.34;5043339;28;20137;-79
2020/12/19 06:52:54;;;;;;;12.77;6.13;;;;;;;1.27;89.11;99323.91;5034350;28;20064;-78
2020/12/19 06:55:22;;;;;;;7.80;4.88;;;;;;;1.38;89.07;99332.78;5052866;28;20049;-78
2020/12/19 06:57:52;;;;;;;7.43;4.75;;;;;;;1.57;88.13;99336.69;5052664;28;20080;-79
2020/12/19 07:00:19;;;;;;;;;;;;;;;1.68;87.49;99335.81;5051851;28;20049;-78
2020/12/19 07:02:50;;;;;;;9.70;3.95;;;;;;;1.59;87.43;99342.78;5053522;28;20147;-78
2020/12/19 07:05:21;;;;;;;8.32;4.65;;;;;;;1.49;88.01;99348.03;5053159;28;20090;-78
2020/12/19 07:07:47;;;;;;;7.80;4.97;;;;;;;1.42;87.89;99350.31;5052112;28;20085;-78
2020/12/19 07:10:14;;;;;;;10.60;5.15;;;;;;;1.29;88.18;99346.06;5053025;28;20273;-78
2020/12/19 07:12:42;;;;;;;9.80;6.07;;;;;;;1.11;88.06;99354.56;5050780;28;20045;-78
2020/12/19 07:15:10;;;;;;;10.52;5.57;;;;;;;1.01;nan;99354.44;5051823;28;20095;-79
2020/12/19 07:17:48;;;;;;;12.75;6.05;;;;;;;0.94;88.76;99344.34;5047558;28;20052;-78
2020/12/19 07:20:21;;;;;;;9.40;5.50;;;;;;;0.95;88.48;99356.72;5051886;28;20060;-78
2020/12/19 07:22:47;;;;;;;9.50;5.07;;;;;;;0.89;88.90;99366.09;5041608;28;20067;-78
2020/12/19 07:25:14;;;;;;;7.75;4.85;;;;;;;0.82;88.70;99371.06;5052859;28;20056;-79
2020/12/19 07:27:41;;;;;;;7.93;4.90;;;;;;;0.75;88.85;99360.94;5052471;28;20044;-78
2020/12/19 07:30:07;;;;;;;9.63;4.82;;;;;;;0.82;88.66;99363.03;5050921;28;20049;-79
2020/12/19 07:32:33;;;;;;;9.45;5.35;;;;;;;0.77;89.01;99377.72;5052779;28;20040;-79
2020/12/19 07:35:00;;;;;;;8.73;4.82;;;;;;;0.68;88.17;99374.81;5046128;28;20480;-79
2020/12/19 07:37:27;;;;;;;8.82;5.15;;;;;;;0.52;89.12;99375.09;5045721;28;20053;-80
2020/12/19 07:40:05;;;;;;;9.75;5.53;;;;;;;0.66;89.44;99378.56;5041324;28;20057;-80
2020/12/19 07:42:31;;;;;;;11.45;5.28;;;;;;;0.65;88.74;99358.13;5050679;28;20055;-80
2020/12/19 07:44:58;;;;;;;7.78;4.80;;;;;;;0.70;89.10;99366.66;5050812;28;20049;-80
2020/12/19 07:47:24;;;;;;;6.45;4.32;;;;;;;0.61;89.25;99362.84;5045008;28;20049;-80
2020/12/19 07:49:52;;;;;;;9.45;5.07;;;;;;;0.63;89.55;99368.97;5045244;28;20053;-80
2020/12/19 07:52:20;;;;;;;12.13;4.75;;;;;;;0.76;89.74;99371.53;5052783;28;20055;-80
2020/12/19 07:54:57;;;;;;;7.95;4.40;;;;;;;0.73;89.55;99365.59;5038929;28;20099;-80
2020/12/19 07:57:24;;;;;;;12.10;4.80;;;;;;;0.69;89.39;99352.44;5051796;28;20134;-80
2020/12/19 07:59:52;;;;;;;8.43;4.50;;;;;;;0.76;89.57;99358.16;5046030;28;20042;-80
2020/12/19 08:02:20;;;;;;;7.00;4.53;;;;;;;1.00;89.64;99376.81;5046483;28;20489;-79
2020/12/19 08:04:52;;;;;;;10.77;5.68;;;;;;;0.96;89.56;99364.63;5050727;28;20053;-79
2020/12/19 08:07:19;;;;;;;11.25;6.18;;;;;;;1.08;89.94;99370.88;5052684;28;20059;-79
2020/12/19 08:09:46;;;;;;;12.87;5.23;;;;;;;1.06;89.10;99365.63;5052362;28;20063;-79
2020/12/19 08:12:13;;;;;;;19.25;6.70;;;;;;;0.92;89.69;99347.13;5048483;28;20402;-79
2020/12/19 08:14:40;;;;;;;13.52;6.20;;;;;;;0.92;89.08;99343.59;5039277;28;20057;-79
2020/12/19 08:17:15;;;;;;;15.25;6.15;;;;;;;1.21;88.81;99381.50;5041859;28;20045;-79
2020/12/19 08:19:46;;;;;;;10.80;6.22;;;;;;;1.14;88.96;99364.19;5042043;28;20410;-79
2020/12/19 08:22:13;;;;;;;8.18;4.70;;;;;;;1.24;89.42;99373.22;5049926;28;20477;-79
2020/12/19 08:24:40;;;;;;;9.02;5.55;;;;;;;1.32;89.01;99380.66;5046597;28;20045;-79
2020/12/19 08:27:28;;;;;;;8.07;5.10;;;;;;;1.33;89.30;99380.53;5053001;28;20045;-79
2020/12/19 08:30:08;;;;;;;10.57;5.40;;;;;;;1.43;89.25;99380.66;5044006;28;20056;-79
2020/12/19 08:32:35;;;;;;;10.80;6.57;;;;;;;1.42;88.99;99366.41;5052642;28;20052;-79
2020/12/19 08:35:03;;;;;;;11.80;6.80;;;;;;;1.46;89.11;99376.88;5049259;28;20072;-79
2020/12/19 08:37:29;;;;;;;12.15;5.22;;;;;;;1.40;88.72;99352.28;5048065;28;20219;-79
2020/12/19 08:40:07;;;;;;;15.70;7.68;;;;;;;1.40;88.63;99370.16;5052794;28;20045;-79
2020/12/19 08:42:35;;;;;;;24.35;9.57;;;;;;;1.56;89.36;99388.56;5041439;28;20049;-80
2020/12/19 08:45:26;;;;;;;18.35;9.02;;;;;;;1.67;89.04;99390.38;5046882;28;20053;-79
2020/12/19 08:47:55;;;;;;;11.10;5.95;;;;;;;1.70;88.58;99391.00;5046244;28;20044;-80
2020/12/19 08:50:44;;;;;;;11.10;6.35;;;;;;;1.66;88.43;99391.38;5046961;28;20049;-79
2020/12/19 08:53:18;;;;;;;12.98;6.65;;;;;;;1.56;88.79;99376.00;5033567;28;20063;-79
2020/12/19 08:55:46;;;;;;;11.10;6.55;;;;;;;1.79;88.30;99399.28;5038710;28;20049;-79
2020/12/19 08:58:23;;;;;;;11.60;6.38;;;;;;;1.73;87.80;99392.56;5052213;28;20049;-79
2020/12/19 09:00:50;;;;;;;9.05;5.22;;;;;;;1.83;87.98;99401.59;5052255;28;20095;-79
2020/12/19 09:03:25;;;;;;;8.73;5.90;;;;;;;1.86;88.25;99395.97;5052354;28;20045;-79
2020/12/19 09:05:58;;;;;;;11.35;6.15;;;;;;;1.93;88.31;99393.69;5050910;28;20057;-79
2020/12/19 09:08:31;;;;;;;15.68;6.18;;;;;;;2.02;87.36;99400.09;5051842;28;20048;-79
2020/12/19 09:10:57;;;;;;;10.48;6.13;;;;;;;2.01;87.80;99393.03;5048996;28;20094;-79
2020/12/19 09:13:24;;;;;;;11.15;6.22;;;;;;;2.07;87.50;99395.22;5045294;28;20490;-79
2020/12/19 09:15:51;;;;;;;10.20;6.80;;;;;;;2.18;87.03;99402.41;5040256;28;20434;-79
2020/12/19 09:18:22;;;;;;;14.50;7.47;;;;;;;2.30;87.29;99406.75;5045110;28;20045;-79
2020/12/19 09:20:55;;;;;;;13.63;7.28;;;;;;;2.32;86.93;99402.13;5041926;28;20052;-79
2020/12/19 09:23:23;;;;;;;13.55;7.25;;;;;;;2.41;86.95;99412.09;5049448;28;20045;-79
2020/12/19 09:25:50;;;;;;;11.23;6.80;;;;;;;2.43;86.72;99412.81;5049516;28;20057;-81
2020/12/19 09:28:16;;;;;;;12.98;5.72;;;;;;;2.47;85.92;99414.28;5051603;28;20194;-79
2020/12/19 09:30:43;;;;;;;11.50;6.75;;;;;;;2.50;86.50;99398.88;5050078;28;20048;-78
2020/12/19 09:33:09;;;;;;;11.73;6.18;;;;;;;2.64;86.17;99417.38;5051255;28;20119;-78
2020/12/19 09:35:35;;;;;;;9.63;6.25;;;;;;;2.76;86.00;99413.66;5049719;28;20045;-78
2020/12/19 09:38:03;;;;;;;12.65;6.32;;;;;;;2.86;85.49;99408.38;5048791;28;20500;-78
2020/12/19 09:40:29;;;;;;;11.55;6.05;;;;;;;2.87;85.68;99409.22;5037995;28;20489;-78
2020/12/19 09:42:56;;;;;;;13.75;6.70;;;;;;;2.96;85.41;99403.91;5049421;28;20056;-78
2020/12/19 09:45:22;;;;;;;11.70;6.68;;;;;;;2.94;85.32;99397.84;5051632;28;20052;-79
2020/12/19 09:47:52;;;;;;;9.40;5.85;;;;;;;3.05;85.17;99404.13;5053580;28;20053;-78
2020/12/19 09:50:18;;;;;;;11.30;6.47;;;;;;;3.12;85.00;99399.94;5045088;28;20050;-78
2020/12/19 09:52:44;;;;;;;12.65;7.28;;;;;;;3.16;85.08;99402.22;5033004;28;20057;-79
2020/12/19 09:55:11;;;;;;;11.43;6.50;;;;;;;3.26;85.18;99401.44;5033212;28;20095;-78
2020/12/19 09:57:37;;;;;;;12.52;6.18;;;;;;;3.39;85.43;99407.47;5048121;28;20052;-79
2020/12/19 10:00:05;;;;;;;10.75;5.68;;;;;;;3.52;85.69;99405.41;5050340;28;20106;-79
2020/12/19 10:02:31;;;;;;;10.15;5.03;;;;;;;3.62;85.89;99399.22;5050925;28;20049;-79
2020/12/19 10:04:58;;;;;;;13.10;5.45;;;;;;;3.79;86.22;99395.88;5050594;28;20045;-78
2020/12/19 10:07:24;;;;;;;6.93;5.28;;;;;;;3.91;86.01;99391.25;5051316;28;20048;-79
2020/12/19 10:09:50;;;;;;;7.20;5.07;;;;;;;4.00;85.70;99386.91;5050342;28;20048;-79
2020/12/19 10:12:17;;;;;;;9.63;5.75;;;;;;;4.02;85.22;99371.44;5051008;28;20056;-80
2020/12/19 10:14:44;;;;;;;7.30;4.57;;;;;;;4.22;85.18;99367.00;5050501;28;20045;-80
2020/12/19 10:17:10;;;;;;;9.55;4.80;;;;;;;4.37;84.64;99370.97;5050094;28;20079;-80
2020/12/19 10:19:36;;;;;;;9.23;4.95;;;;;;;4.51;84.64;99366.16;5051941;28;20045;-80
2020/12/19 10:22:03;;;;;;;6.60;4.70;;;;;;;4.60;85.02;99368.84;5050771;28;20049;-80
2020/12/19 10:24:29;;;;;;;9.18;4.72;;;;;;;4.68;83.95;99354.69;5048524;28;20685;-79
2020/12/19 10:26:56;;;;;;;7.60;4.55;;;;;;;4.71;84.18;99357.09;5050292;28;20443;-78
2020/12/19 10:29:23;;;;;;;7.30;5.25;;;;;;;4.92;84.56;99370.41;5051959;28;20049;-82
2020/12/19 10:31:50;;;;;;;11.00;5.22;;;;;;;4.89;83.31;99364.44;5051317;28;20526;-80
2020/12/19 10:34:16;;;;;;;6.55;4.63;;;;;;;4.88;82.16;99346.59;5050337;28;20060;-80
2020/12/19 10:36:42;;;;;;;9.55;5.00;;;;;;;5.00;82.35;99358.91;5049182;28;20052;-80
2020/12/19 10:39:08;;;;;;;8.35;4.55;;;;;;;4.80;81.92;99325.75;5050852;28;20099;-78
2020/12/19 10:41:35;;;;;;;10.15;5.03;;;;;;;4.88;81.86;99349.28;5052649;28;20616;-80
2020/12/19 10:44:01;;;;;;;10.55;3.90;;;;;;;5.07;79.83;99348.38;5051645;28;20115;-80
2020/12/19 10:46:30;;;;;;;5.57;3.60;;;;;;;5.30;79.73;99348.91;5049818;28;20049;-80
2020/12/19 10:48:56;;;;;;;7.95;3.67;;;;;;;5.44;79.04;99344.88;5049312;28;20144;-80
2020/12/19 10:51:26;;;;;;;6.30;3.60;;;;;;;5.43;79.07;99316.22;5050012;28;20490;-80
2020/12/19 10:53:52;;;;;;;6.25;4.00;;;;;;;5.64;78.21;99341.09;5050037;28;20091;-80
2020/12/19 10:56:19;;;;;;;6.72;3.85;;;;;;;5.74;78.07;99340.22;5050786;28;20041;-80
2020/12/19 10:58:45;;;;;;;6.82;3.83;;;;;;;5.84;77.96;99330.19;5049986;28;20072;-80
2020/12/19 11:01:12;;;;;;;10.18;4.28;;;;;;;5.92;77.76;99345.66;5053053;28;20048;-80
2020/12/19 11:03:41;;;;;;;6.20;3.85;;;;;;;5.90;76.76;99315.28;5065442;28;20041;-80
2020/12/19 11:06:07;;;;;;;6.38;3.63;;;;;;;5.98;77.57;99308.16;5049520;28;20151;-80
2020/12/19 11:08:34;;;;;;;5.90;3.97;;;;;;;6.09;78.51;99325.13;5049774;28;20049;-80
2020/12/19 11:11:00;;;;;;;7.00;4.53;;;;;;;6.11;78.55;99315.91;5050973;28;20057;-80
2020/12/19 11:13:26;;;;;;;6.97;4.28;;;;;;;6.00;77.20;99286.41;5054341;28;20064;-80
2020/12/19 11:15:53;;;;;;;7.47;3.92;;;;;;;6.27;77.80;99315.19;5052390;28;20052;-80
2020/12/19 11:18:19;;;;;;;8.75;4.35;;;;;;;6.38;77.27;99314.09;5051040;28;20049;-79
2020/12/19 11:20:46;;;;;;;8.13;4.63;;;;;;;6.52;76.26;99313.59;5053486;28;20056;-80
2020/12/19 11:23:12;;;;;;;7.03;4.20;;;;;;;6.66;74.31;99305.94;5053926;28;20049;-80
2020/12/19 11:25:38;;;;;;;6.40;4.32;;;;;;;6.60;75.22;99291.19;5054220;28;20056;-80
2020/12/19 11:28:05;;;;;;;8.00;4.18;;;;;;;6.96;74.87;99311.91;5052898;28;20036;-80
2020/12/19 11:30:31;;;;;;;6.35;3.55;;;;;;;7.01;74.05;99298.75;5054114;28;20041;-80
2020/12/19 11:32:57;;;;;;;6.63;3.45;;;;;;;7.00;73.93;99292.50;5053324;28;20075;-80
2020/12/19 11:35:26;;;;;;;6.13;4.03;;;;;;;7.11;74.72;99285.97;5053241;28;20056;-80
2020/12/19 11:37:55;;;;;;;7.70;3.63;;;;;;;7.26;72.02;99291.66;5051585;28;20079;-80
2020/12/19 11:40:22;;;;;;;7.47;4.30;;;;;;;7.35;72.74;99295.25;5045170;28;20123;-80
2020/12/19 11:42:48;;;;;;;6.20;3.60;;;;;;;7.28;72.98;99289.63;5050635;28;20079;-80